Terminal Aerodrome Forecast
Issued by NWS

Home | Current Version | Previous Version | Text Only | Print | Product List | Glossary Off
Versions: 1 2 3 4 5 6 7 8 9 10 11 12 13 14 15 16 17 18

357
FTUS43 KMPX 271120
TAFAXN
TAF
KAXN 271120Z 2712/2812 08013G20KT P6SM BKN040 OVC100
     FM271300 08015G22KT P6SM SCT040 BKN100
     FM271800 08020G30KT P6SM OVC100
     FM280200 07013KT P6SM -RA BKN050 OVC100
     FM280900 07008KT P6SM VCSH SCT040 OVC090=

USA.gov is the U.S. government's official web portal to all federal, state and local government web resources and services.